Time;durP1;ratioP1;P1;durP2;ratioP2;P2;SDS_P1;SDS_P2;PMS_P1;PMS_P2;Temp;Humidity;BMP_temperature;BMP_pressure;BME280_temperature;BME280_humidity;BME280_pressure;Samples;Min_cycle;Max_cycle;Signal;HPM_P1;HPM_P2
2022/11/14 06:00:09;;;;;;;7.90;7.20;;;7.40;97.20;;;;;;1702624;28;20645;-72
2022/11/14 06:01:01;;;;;;;7.72;7.07;;;7.40;97.20;;;;;;1701425;29;20219;-72
2022/11/14 06:01:53;;;;;;;7.55;6.95;;;7.40;97.20;;;;;;1706896;29;20209;-71
2022/11/14 06:02:45;;;;;;;7.45;6.85;;;7.40;97.20;;;;;;1708293;28;20213;-71
2022/11/14 06:03:39;;;;;;;7.97;7.30;;;7.40;97.20;;;;;;1708324;28;20239;-71
2022/11/14 06:04:29;;;;;;;9.15;8.35;;;7.50;97.20;;;;;;1708384;28;20209;-72
2022/11/14 06:05:22;;;;;;;7.33;6.73;;;7.50;97.20;;;;;;1708348;28;20649;-72
2022/11/14 06:06:14;;;;;;;7.95;7.25;;;7.50;97.20;;;;;;1702517;28;20206;-71
2022/11/14 06:07:08;;;;;;;7.78;7.07;;;7.50;97.20;;;;;;1701595;29;20199;-71
2022/11/14 06:07:58;;;;;;;8.43;7.72;;;7.50;97.20;;;;;;1701680;29;20222;-72
2022/11/14 06:08:50;;;;;;;7.57;6.97;;;7.50;97.20;;;;;;1701710;29;20684;-71
2022/11/14 06:09:41;;;;;;;7.75;7.15;;;7.50;97.20;;;;;;1701651;29;20218;-71
2022/11/14 06:10:35;;;;;;;8.73;7.90;;;7.50;97.20;;;;;;1701505;29;20233;-71
2022/11/14 06:11:25;;;;;;;7.85;7.25;;;7.50;97.20;;;;;;1701626;29;20641;-71
2022/11/14 06:12:17;;;;;;;8.37;7.67;;;7.50;97.20;;;;;;1701413;29;20673;-71
2022/11/14 06:13:08;;;;;;;7.30;6.70;;;7.50;97.20;;;;;;1701561;29;20230;-71
2022/11/14 06:13:59;;;;;;;7.60;7.00;;;7.60;97.20;;;;;;1701668;29;20199;-71
2022/11/14 06:14:50;;;;;;;7.75;7.05;;;7.60;97.20;;;;;;1701496;29;20220;-71
2022/11/14 06:15:43;;;;;;;8.17;7.37;;;7.50;97.20;;;;;;1702901;29;20217;-71
2022/11/14 06:16:34;;;;;;;7.72;7.10;;;7.60;97.20;;;;;;1704923;29;20206;-71
2022/11/14 06:17:26;;;;;;;8.00;7.30;;;7.60;97.20;;;;;;1708152;29;20285;-71
2022/11/14 06:18:17;;;;;;;7.55;6.95;;;7.60;97.20;;;;;;1706469;29;20446;-71
2022/11/14 06:19:09;;;;;;;7.60;7.00;;;7.60;97.20;;;;;;1706417;28;20198;-71
2022/11/14 06:19:59;;;;;;;7.53;6.88;;;7.60;97.20;;;;;;1701607;29;20203;-71
2022/11/14 06:20:51;;;;;;;8.67;7.90;;;7.60;97.20;;;;;;1705003;29;20210;-71
2022/11/14 06:21:42;;;;;;;8.70;7.90;;;7.60;97.20;;;;;;1707919;28;20483;-72
2022/11/14 06:22:34;;;;;;;8.70;8.00;;;7.60;97.20;;;;;;1704361;28;20196;-71
2022/11/14 06:23:25;;;;;;;9.50;8.65;;;7.70;97.20;;;;;;1701457;29;20203;-71
2022/11/14 06:24:17;;;;;;;9.50;8.63;;;7.60;97.20;;;;;;1701617;29;20203;-72
2022/11/14 06:25:08;;;;;;;10.10;9.20;;;7.70;97.20;;;;;;1701515;29;20203;-72
2022/11/14 06:26:00;;;;;;;9.73;8.75;;;7.60;97.20;;;;;;1702738;29;20199;-72
2022/11/14 06:26:51;;;;;;;9.20;8.40;;;7.70;97.20;;;;;;1708017;28;20268;-72
2022/11/14 06:27:43;;;;;;;8.90;8.20;;;7.60;97.20;;;;;;1708160;28;20265;-72
2022/11/14 06:28:34;;;;;;;8.55;7.85;;;7.60;97.20;;;;;;1708133;28;20668;-72
2022/11/14 06:29:25;;;;;;;8.57;7.87;;;7.60;97.20;;;;;;1708080;28;20688;-72
2022/11/14 06:30:16;;;;;;;8.95;8.18;;;7.60;97.20;;;;;;1707907;28;20203;-72
2022/11/14 06:31:09;;;;;;;10.30;9.20;;;7.60;97.20;;;;;;1700072;28;20210;-72
2022/11/14 06:32:00;;;;;;;8.50;7.80;;;7.60;97.20;;;;;;1696120;29;20211;-72
2022/11/14 06:32:57;;;;;;;9.80;8.90;;;7.60;97.20;;;;;;1695782;29;20210;-72
2022/11/14 06:33:48;;;;;;;9.30;8.40;;;7.60;97.20;;;;;;1701526;29;20266;-72
2022/11/14 06:34:39;;;;;;;9.13;8.32;;;7.50;97.20;;;;;;1695085;29;20251;-72
2022/11/14 06:35:32;;;;;;;9.65;8.80;;;7.50;97.20;;;;;;1699369;29;20214;-71
2022/11/14 06:36:23;;;;;;;8.95;8.18;;;7.50;97.20;;;;;;1701454;29;20203;-72
2022/11/14 06:37:14;;;;;;;9.45;8.63;;;7.50;97.20;;;;;;1701399;29;20203;-72
2022/11/14 06:38:06;;;;;;;8.70;8.00;;;7.50;97.20;;;;;;1701498;29;20203;-72
2022/11/14 06:38:57;;;;;;;10.00;9.10;;;7.50;97.20;;;;;;1700404;29;20580;-72
2022/11/14 06:39:49;;;;;;;8.20;7.50;;;7.50;97.20;;;;;;1695929;29;20201;-73
2022/11/14 06:40:39;;;;;;;9.35;8.55;;;7.50;97.20;;;;;;1701369;29;20223;-73
2022/11/14 06:41:31;;;;;;;8.87;8.17;;;7.50;97.20;;;;;;1704412;29;20191;-73
2022/11/14 06:42:22;;;;;;;9.30;8.50;;;7.50;97.20;;;;;;1701472;29;20666;-71
2022/11/14 06:43:14;;;;;;;9.60;8.77;;;7.40;97.20;;;;;;1701396;29;20669;-72
2022/11/14 06:44:07;;;;;;;10.25;9.35;;;7.40;97.20;;;;;;1701532;29;20288;-72
2022/11/14 06:44:58;;;;;;;9.68;8.77;;;7.40;97.20;;;;;;1701493;29;20701;-72
2022/11/14 06:45:52;;;;;;;8.98;8.18;;;7.40;97.20;;;;;;1701345;29;20200;-71
2022/11/14 06:46:45;;;;;;;9.05;8.25;;;7.40;97.20;;;;;;1701346;29;20658;-72
2022/11/14 06:47:36;;;;;;;9.30;8.40;;;7.40;97.20;;;;;;1701446;29;20218;-71
2022/11/14 06:48:28;;;;;;;9.40;8.60;;;7.40;97.20;;;;;;1701137;29;20191;-71
2022/11/14 06:49:19;;;;;;;8.88;8.07;;;7.50;97.20;;;;;;1694858;29;20216;-71
2022/11/14 06:50:10;;;;;;;9.23;8.43;;;7.40;97.20;;;;;;1694836;29;20199;-71
2022/11/14 06:51:03;;;;;;;9.35;8.55;;;7.50;97.20;;;;;;1694863;29;20827;-71
2022/11/14 06:51:55;;;;;;;9.63;8.73;;;7.50;97.20;;;;;;1694519;29;20271;-71
2022/11/14 06:52:46;;;;;;;8.30;7.60;;;7.50;97.20;;;;;;1694808;29;20218;-71
2022/11/14 06:53:38;;;;;;;8.30;7.60;;;7.50;97.20;;;;;;1694807;29;20680;-71
2022/11/14 06:54:28;;;;;;;8.80;8.00;;;7.50;97.20;;;;;;1694806;29;20452;-71
2022/11/14 06:55:20;;;;;;;8.43;7.73;;;7.50;97.20;;;;;;1694847;29;20236;-69
2022/11/14 06:56:13;;;;;;;8.48;7.68;;;7.50;97.20;;;;;;1694819;29;20218;-72
2022/11/14 06:57:05;;;;;;;9.73;8.82;;;7.50;97.20;;;;;;1694799;29;20587;-71
2022/11/14 06:57:57;;;;;;;9.02;8.13;;;7.50;97.20;;;;;;1699227;29;20206;-72
2022/11/14 06:58:50;;;;;;;9.45;8.65;;;7.50;97.20;;;;;;1701339;29;20207;-72
2022/11/14 06:59:40;;;;;;;11.32;10.25;;;7.50;97.20;;;;;;1701314;29;20346;-73
2022/11/14 07:00:32;;;;;;;11.33;10.23;;;7.50;97.20;;;;;;1701382;29;20235;-70
2022/11/14 07:01:24;;;;;;;11.60;10.50;;;7.50;97.20;;;;;;1701488;29;20203;-71
2022/11/14 07:02:18;;;;;;;12.10;11.00;;;7.50;97.20;;;;;;1701395;29;20207;-70
2022/11/14 07:03:08;;;;;;;10.80;9.80;;;7.50;97.20;;;;;;1701408;29;20210;-70
2022/11/14 07:04:01;;;;;;;10.67;9.57;;;7.50;97.20;;;;;;1701446;29;20234;-70
2022/11/14 07:04:52;;;;;;;10.30;9.30;;;7.50;97.20;;;;;;1701542;29;20297;-71
2022/11/14 07:05:43;;;;;;;10.13;9.23;;;7.60;97.20;;;;;;1701452;29;20217;-70
2022/11/14 07:06:34;;;;;;;7.50;6.90;;;7.60;97.20;;;;;;1701519;29;20211;-71
2022/11/14 07:07:26;;;;;;;8.30;7.60;;;7.60;97.20;;;;;;1701263;29;20231;-71
2022/11/14 07:08:17;;;;;;;9.15;8.45;;;7.60;97.20;;;;;;1701384;29;20587;-71
2022/11/14 07:09:10;;;;;;;9.10;8.30;;;7.60;97.20;;;;;;1701334;29;20571;-71
2022/11/14 07:10:01;;;;;;;7.95;7.30;;;7.60;97.20;;;;;;1701333;29;20670;-71
2022/11/14 07:10:52;;;;;;;10.90;9.23;;;7.60;97.20;;;;;;1701213;29;20855;-71
2022/11/14 07:11:45;;;;;;;9.73;8.93;;;7.60;97.20;;;;;;1701094;29;20218;-71
2022/11/14 07:12:37;;;;;;;10.23;9.23;;;7.60;97.20;;;;;;1701298;29;20283;-72
2022/11/14 07:13:28;;;;;;;10.38;9.48;;;7.60;97.20;;;;;;1701203;29;20207;-72
2022/11/14 07:14:19;;;;;;;10.43;9.43;;;7.60;97.20;;;;;;1701360;29;20195;-71
2022/11/14 07:15:10;;;;;;;9.43;8.63;;;7.70;97.20;;;;;;1701156;29;20449;-71
2022/11/14 07:16:03;;;;;;;9.03;8.23;;;7.70;97.20;;;;;;1700526;29;20211;-72
2022/11/14 07:16:54;;;;;;;9.40;8.60;;;7.70;97.20;;;;;;1700603;29;20214;-71
2022/11/14 07:17:47;;;;;;;9.37;8.57;;;7.70;97.20;;;;;;1700651;29;20203;-71
2022/11/14 07:18:38;;;;;;;8.10;7.40;;;7.70;97.20;;;;;;1700582;29;20210;-71
2022/11/14 07:19:29;;;;;;;7.97;7.27;;;7.70;97.20;;;;;;1700571;29;20286;-72
2022/11/14 07:20:20;;;;;;;8.48;7.78;;;7.70;97.20;;;;;;1700543;29;20450;-72
2022/11/14 07:21:13;;;;;;;8.57;7.77;;;7.70;97.20;;;;;;1700810;29;20203;-71
2022/11/14 07:22:03;;;;;;;8.90;8.15;;;7.70;97.20;;;;;;1700223;29;20439;-71
2022/11/14 07:22:55;;;;;;;8.37;7.67;;;7.80;97.20;;;;;;1700479;29;20207;-71
2022/11/14 07:23:46;;;;;;;7.15;6.60;;;7.70;97.20;;;;;;1700610;29;20668;-71
2022/11/14 07:24:37;;;;;;;7.87;7.17;;;7.70;97.20;;;;;;1700475;29;20571;-71
2022/11/14 07:25:28;;;;;;;7.65;6.88;;;7.80;97.20;;;;;;1700436;29;20206;-71
2022/11/14 07:26:20;;;;;;;8.43;7.73;;;7.80;97.20;;;;;;1700567;29;20207;-70
2022/11/14 07:27:11;;;;;;;8.00;7.30;;;7.80;97.20;;;;;;1700477;29;20218;-71
2022/11/14 07:28:02;;;;;;;7.83;7.13;;;7.80;97.20;;;;;;1700399;29;20203;-71
2022/11/14 07:28:53;;;;;;;8.25;7.50;;;7.80;97.20;;;;;;1700396;29;20239;-70
2022/11/14 07:29:45;;;;;;;8.40;7.60;;;7.80;97.20;;;;;;1700468;29;20202;-71
2022/11/14 07:30:35;;;;;;;7.63;7.00;;;7.80;97.20;;;;;;1699612;29;20723;-70
2022/11/14 07:31:27;;;;;;;8.07;7.37;;;7.80;97.20;;;;;;1694523;29;20569;-70
2022/11/14 07:32:18;;;;;;;8.30;7.60;;;7.80;97.20;;;;;;1694415;29;20204;-70
2022/11/14 07:33:11;;;;;;;8.80;8.00;;;7.80;97.20;;;;;;1694575;29;20219;-70
2022/11/14 07:34:02;;;;;;;8.85;8.10;;;7.80;97.20;;;;;;1693381;29;20606;-71
2022/11/14 07:34:53;;;;;;;9.17;8.43;;;7.90;97.20;;;;;;1688105;29;20200;-71
2022/11/14 07:35:44;;;;;;;9.13;8.43;;;7.90;97.20;;;;;;1688022;29;20480;-70
2022/11/14 07:36:36;;;;;;;9.20;8.40;;;7.90;97.20;;;;;;1688146;29;20677;-71
2022/11/14 07:37:26;;;;;;;8.93;8.13;;;7.80;97.20;;;;;;1688059;29;20298;-70
2022/11/14 07:38:18;;;;;;;9.53;8.73;;;7.90;97.20;;;;;;1687555;29;20730;-70
2022/11/14 07:39:10;;;;;;;8.63;7.82;;;7.80;97.20;;;;;;1688070;29;20208;-71
2022/11/14 07:40:00;;;;;;;8.52;7.75;;;7.80;97.20;;;;;;1688099;29;20205;-70
2022/11/14 07:40:56;;;;;;;8.67;7.80;;;7.90;97.20;;;;;;1688058;29;20303;-71
2022/11/14 07:41:47;;;;;;;9.35;8.45;;;7.90;97.20;;;;;;1687736;29;20208;-71
2022/11/14 07:42:39;;;;;;;8.67;7.83;;;7.90;97.20;;;;;;1688136;29;20206;-70
2022/11/14 07:43:30;;;;;;;8.88;8.13;;;7.90;97.20;;;;;;1688060;29;20209;-70
2022/11/14 07:44:21;;;;;;;9.20;8.40;;;7.90;97.20;;;;;;1688123;29;20291;-70
2022/11/14 07:45:12;;;;;;;9.45;8.55;;;7.90;97.20;;;;;;1688089;29;20449;-70
2022/11/14 07:46:06;;;;;;;14.20;8.20;;;7.90;97.20;;;;;;1688015;29;20205;-70
2022/11/14 07:46:57;;;;;;;8.93;8.02;;;8.00;97.20;;;;;;1688021;29;20576;-70
2022/11/14 07:47:48;;;;;;;9.47;8.60;;;8.00;97.20;;;;;;1687945;29;20200;-70
2022/11/14 07:48:41;;;;;;;8.38;7.68;;;8.00;97.20;;;;;;1688038;29;20216;-70
2022/11/14 07:49:33;;;;;;;8.20;7.50;;;8.00;97.20;;;;;;1688039;29;20701;-70
2022/11/14 07:50:24;;;;;;;9.13;8.32;;;8.00;97.20;;;;;;1687974;29;20213;-70
2022/11/14 07:51:18;;;;;;;8.70;7.93;;;8.00;97.20;;;;;;1688080;29;20260;-70
2022/11/14 07:52:09;;;;;;;9.45;8.57;;;8.00;97.20;;;;;;1687727;29;20962;-70
2022/11/14 07:53:00;;;;;;;8.48;7.68;;;8.00;97.20;;;;;;1687957;29;20209;-71
2022/11/14 07:53:53;;;;;;;9.10;8.20;;;8.00;97.20;;;;;;1687965;29;20210;-71
2022/11/14 07:54:43;;;;;;;9.60;8.65;;;8.00;97.20;;;;;;1687963;29;20671;-71
2022/11/14 07:55:35;;;;;;;9.00;8.20;;;8.00;97.20;;;;;;1687967;29;20702;-70
2022/11/14 07:56:26;;;;;;;9.02;8.23;;;8.00;97.20;;;;;;1687926;29;20216;-71
2022/11/14 07:57:18;;;;;;;10.10;8.33;;;8.10;97.20;;;;;;1687994;29;20204;-71
2022/11/14 07:58:08;;;;;;;9.70;8.70;;;8.10;97.20;;;;;;1687909;29;20215;-70
2022/11/14 07:59:00;;;;;;;8.73;7.90;;;8.10;97.20;;;;;;1688021;29;20230;-70
2022/11/14 07:59:51;;;;;;;8.95;8.15;;;8.00;97.20;;;;;;1687917;29;20204;-70
2022/11/14 08:00:42;;;;;;;8.93;8.13;;;8.00;97.20;;;;;;1687870;29;20710;-70
2022/11/14 08:01:33;;;;;;;7.82;7.03;;;8.00;97.20;;;;;;1687683;29;20209;-71
2022/11/14 08:02:25;;;;;;;9.13;8.33;;;8.00;97.20;;;;;;1687903;29;20204;-70
2022/11/14 08:03:15;;;;;;;8.52;7.78;;;8.00;97.20;;;;;;1687959;29;20402;-70
2022/11/14 08:04:08;;;;;;;7.87;7.07;;;8.00;97.20;;;;;;1687936;29;20208;-71
2022/11/14 08:05:00;;;;;;;8.90;8.00;;;8.00;97.20;;;;;;1687915;29;20212;-70
2022/11/14 08:05:51;;;;;;;8.60;7.78;;;8.00;97.20;;;;;;1687939;29;20290;-70
2022/11/14 08:06:42;;;;;;;8.90;7.65;;;8.00;97.20;;;;;;1687833;29;20678;-70
2022/11/14 08:07:34;;;;;;;8.20;7.50;;;8.00;97.20;;;;;;1687862;29;20572;-70
2022/11/14 08:08:24;;;;;;;10.00;8.10;;;8.00;97.20;;;;;;1687927;29;20217;-70
2022/11/14 08:09:16;;;;;;;8.80;8.00;;;8.00;97.20;;;;;;1687928;29;20205;-70
2022/11/14 08:10:10;;;;;;;7.95;7.25;;;8.00;97.20;;;;;;1687902;29;20209;-71
2022/11/14 08:11:02;;;;;;;7.75;7.05;;;8.00;97.20;;;;;;1687847;29;20224;-70
2022/11/14 08:11:52;;;;;;;7.45;6.75;;;8.00;97.20;;;;;;1687597;29;20306;-71
2022/11/14 08:12:44;;;;;;;7.63;6.93;;;8.00;97.20;;;;;;1687845;29;20220;-70
2022/11/14 08:13:35;;;;;;;7.75;7.05;;;8.00;97.20;;;;;;1687917;29;20204;-70
2022/11/14 08:14:27;;;;;;;7.80;7.10;;;8.00;97.20;;;;;;1687913;29;20412;-70
2022/11/14 08:15:17;;;;;;;7.63;6.80;;;8.00;97.20;;;;;;1687851;29;20204;-70
2022/11/14 08:16:10;;;;;;;6.50;6.00;;;8.00;97.20;;;;;;1687886;29;20204;-71
2022/11/14 08:17:00;;;;;;;6.78;5.63;;;8.00;97.20;;;;;;1687862;29;20440;-70
2022/11/14 08:17:52;;;;;;;6.00;5.50;;;8.00;97.20;;;;;;1687895;29;20207;-70
2022/11/14 08:18:43;;;;;;;6.15;5.55;;;8.00;97.20;;;;;;1688604;29;20223;-69
2022/11/14 08:19:36;;;;;;;6.63;6.07;;;8.00;97.20;;;;;;1687832;29;20208;-69
2022/11/14 08:20:27;;;;;;;7.00;6.15;;;8.00;97.20;;;;;;1687739;29;20731;-69
2022/11/14 08:21:19;;;;;;;6.65;5.97;;;8.00;97.20;;;;;;1687946;29;20204;-69
2022/11/14 08:22:09;;;;;;;7.38;5.78;;;8.10;97.20;;;;;;1687572;29;20574;-69
2022/11/14 08:23:02;;;;;;;6.80;6.20;;;8.10;97.20;;;;;;1687842;29;20200;-69
2022/11/14 08:23:53;;;;;;;7.13;6.20;;;8.10;97.20;;;;;;1687751;29;20276;-69
2022/11/14 08:24:45;;;;;;;6.20;5.70;;;8.10;97.20;;;;;;1687926;29;20272;-69
2022/11/14 08:25:36;;;;;;;6.40;5.80;;;8.10;97.20;;;;;;1688001;29;20219;-69
2022/11/14 08:26:27;;;;;;;6.50;5.90;;;8.10;97.20;;;;;;1687747;29;20196;-69
2022/11/14 08:27:18;;;;;;;6.10;5.38;;;8.10;97.20;;;;;;1687817;29;20671;-69
2022/11/14 08:28:10;;;;;;;7.17;4.63;;;8.20;97.20;;;;;;1687861;29;20563;-69
2022/11/14 08:29:01;;;;;;;5.88;5.38;;;8.20;97.20;;;;;;1687819;29;20208;-69
2022/11/14 08:29:52;;;;;;;6.03;5.40;;;8.20;97.20;;;;;;1687831;29;20207;-69
2022/11/14 08:30:43;;;;;;;6.00;5.40;;;8.20;97.20;;;;;;1650350;29;1053921;-69
2022/11/14 08:31:35;;;;;;;5.90;5.30;;;8.20;97.20;;;;;;1681135;29;20292;-69
2022/11/14 08:32:26;;;;;;;5.85;5.35;;;8.20;97.20;;;;;;1681347;29;20224;-69
2022/11/14 08:33:17;;;;;;;5.97;5.47;;;8.20;97.20;;;;;;1681276;29;20288;-69
2022/11/14 08:34:08;;;;;;;5.90;5.40;;;8.30;97.20;;;;;;1683240;29;20456;-69
2022/11/14 08:35:01;;;;;;;5.50;5.00;;;8.30;97.20;;;;;;1687788;29;20207;-69
2022/11/14 08:35:52;;;;;;;5.25;4.75;;;8.30;97.20;;;;;;1687663;29;20488;-69
2022/11/14 08:36:44;;;;;;;6.33;4.70;;;8.30;97.20;;;;;;1687704;29;20208;-69
2022/11/14 08:37:34;;;;;;;6.18;4.55;;;8.40;97.20;;;;;;1687708;29;20208;-69
2022/11/14 08:38:26;;;;;;;4.50;4.10;;;8.40;97.20;;;;;;1687819;29;20215;-69
2022/11/14 08:39:18;;;;;;;4.10;3.80;;;8.40;97.20;;;;;;1687735;29;20211;-69
2022/11/14 08:40:10;;;;;;;3.97;3.67;;;8.40;97.20;;;;;;1687731;29;20612;-69
2022/11/14 08:41:02;;;;;;;4.53;3.70;;;8.40;97.20;;;;;;1687575;29;20224;-70
2022/11/14 08:41:53;;;;;;;3.90;3.60;;;8.50;97.20;;;;;;1687435;29;20683;-69
2022/11/14 08:42:44;;;;;;;3.67;3.33;;;8.50;97.20;;;;;;1687624;29;20205;-69
2022/11/14 08:43:36;;;;;;;4.43;3.90;;;8.50;97.20;;;;;;1687640;29;20200;-69
2022/11/14 08:44:28;;;;;;;3.63;3.33;;;8.60;97.20;;;;;;1687683;29;20625;-69
2022/11/14 08:45:18;;;;;;;4.00;3.55;;;8.60;97.20;;;;;;1687754;29;20205;-69
2022/11/14 08:46:10;;;;;;;3.10;2.90;;;8.60;97.20;;;;;;1687720;29;20207;-69
2022/11/14 08:47:02;;;;;;;3.50;3.20;;;8.60;97.20;;;;;;1687657;29;20575;-70
2022/11/14 08:47:54;;;;;;;3.10;2.90;;;8.70;97.20;;;;;;1687708;29;20205;-69
2022/11/14 08:48:45;;;;;;;3.10;2.80;;;8.70;97.20;;;;;;1687672;29;20212;-69
2022/11/14 08:49:36;;;;;;;3.60;3.30;;;8.70;97.20;;;;;;1687518;29;20200;-69
2022/11/14 08:50:29;;;;;;;2.97;2.70;;;8.80;97.20;;;;;;1687533;29;20671;-69
2022/11/14 08:51:20;;;;;;;3.70;3.35;;;8.80;97.20;;;;;;1687743;29;20219;-69
2022/11/14 08:52:11;;;;;;;3.58;3.28;;;8.80;97.20;;;;;;1687475;29;20208;-69
2022/11/14 08:53:03;;;;;;;4.23;3.17;;;8.80;97.20;;;;;;1687648;29;20204;-70
2022/11/14 08:53:53;;;;;;;3.85;3.45;;;8.90;97.20;;;;;;1687673;29;20209;-69
2022/11/14 08:54:45;;;;;;;3.30;3.00;;;8.90;97.20;;;;;;1687661;29;20390;-69
2022/11/14 08:55:36;;;;;;;3.83;2.97;;;8.90;97.20;;;;;;1687697;29;20204;-69
2022/11/14 08:56:27;;;;;;;3.90;2.90;;;8.90;97.20;;;;;;1687596;29;20208;-70
2022/11/14 08:57:18;;;;;;;3.10;2.80;;;9.00;97.20;;;;;;1687671;29;20216;-69
2022/11/14 08:58:10;;;;;;;3.27;2.53;;;9.00;97.20;;;;;;1687740;29;20204;-69
2022/11/14 08:59:02;;;;;;;2.35;2.10;;;9.00;97.20;;;;;;1687700;29;20663;-70
2022/11/14 08:59:54;;;;;;;3.88;2.30;;;9.00;97.20;;;;;;1688022;29;20276;-69
2022/11/14 09:00:45;;;;;;;3.10;2.70;;;9.00;97.20;;;;;;1687570;29;20224;-69
2022/11/14 09:01:37;;;;;;;2.73;2.53;;;9.00;97.20;;;;;;1687446;29;20208;-69
2022/11/14 09:02:28;;;;;;;3.60;2.72;;;9.10;97.20;;;;;;1687709;29;20215;-69
2022/11/14 09:03:19;;;;;;;3.47;3.17;;;9.10;97.20;;;;;;1687707;29;20207;-69
2022/11/14 09:04:10;;;;;;;3.50;3.08;;;9.10;97.20;;;;;;1687621;29;20444;-69
2022/11/14 09:05:02;;;;;;;3.27;2.87;;;9.10;97.20;;;;;;1687669;29;20201;-69
2022/11/14 09:05:54;;;;;;;3.60;3.00;;;9.10;97.20;;;;;;1687653;29;20457;-69
2022/11/14 09:06:46;;;;;;;3.35;3.03;;;9.10;97.20;;;;;;1687610;29;20208;-70
2022/11/14 09:07:36;;;;;;;3.25;2.65;;;9.10;97.20;;;;;;1687673;29;20587;-69
2022/11/14 09:08:29;;;;;;;2.90;2.50;;;9.20;97.20;;;;;;1687644;29;20640;-70
2022/11/14 09:09:20;;;;;;;3.15;2.63;;;9.20;97.20;;;;;;1687642;29;20460;-69
2022/11/14 09:10:11;;;;;;;3.40;2.77;;;9.20;97.20;;;;;;1687646;29;20205;-69
2022/11/14 09:11:05;;;;;;;3.45;3.15;;;9.20;97.20;;;;;;1687664;29;20215;-69
2022/11/14 09:11:57;;;;;;;2.83;2.55;;;9.20;97.20;;;;;;1687460;29;20197;-70
2022/11/14 09:12:54;;;;;;;5.00;3.20;;;9.20;97.20;;;;;;1687508;29;20208;-70
2022/11/14 09:13:46;;;;;;;3.70;3.40;;;9.20;97.20;;;;;;1687642;29;20204;-69
2022/11/14 09:14:37;;;;;;;3.60;3.30;;;9.30;97.20;;;;;;1687654;29;20204;-69
2022/11/14 09:15:29;;;;;;;2.77;2.57;;;9.30;97.20;;;;;;1687665;29;20204;-69
2022/11/14 09:16:21;;;;;;;3.53;3.22;;;9.30;97.20;;;;;;1687559;29;20248;-69
2022/11/14 09:17:11;;;;;;;4.20;2.33;;;9.30;97.20;;;;;;1687572;29;20208;-70
2022/11/14 09:18:03;;;;;;;2.60;2.40;;;9.30;97.20;;;;;;1687613;29;20212;-69
2022/11/14 09:18:54;;;;;;;2.75;2.28;;;9.30;97.20;;;;;;1687678;29;20528;-69
2022/11/14 09:19:46;;;;;;;2.93;2.20;;;9.30;97.20;;;;;;1687641;29;20219;-69
2022/11/14 09:20:37;;;;;;;2.30;2.10;;;9.40;97.20;;;;;;1687512;29;20609;-70
2022/11/14 09:21:30;;;;;;;2.65;2.45;;;9.40;97.20;;;;;;1687590;29;20204;-69
2022/11/14 09:22:21;;;;;;;3.05;2.15;;;9.40;97.20;;;;;;1687352;29;20212;-70
2022/11/14 09:23:12;;;;;;;2.57;2.30;;;9.40;97.20;;;;;;1687503;29;20211;-69
2022/11/14 09:24:03;;;;;;;2.22;2.03;;;9.40;97.20;;;;;;1687532;29;20208;-69
2022/11/14 09:24:55;;;;;;;2.37;2.17;;;9.40;97.20;;;;;;1687621;29;20209;-70
2022/11/14 09:25:45;;;;;;;2.60;2.40;;;9.40;97.20;;;;;;1687547;29;20453;-69
2022/11/14 09:26:37;;;;;;;3.03;2.33;;;9.50;97.20;;;;;;1687605;29;20204;-69
2022/11/14 09:27:28;;;;;;;2.92;2.67;;;9.50;97.20;;;;;;1687580;29;20209;-70
2022/11/14 09:28:20;;;;;;;3.67;2.83;;;9.50;97.20;;;;;;1687637;29;20683;-69
2022/11/14 09:29:10;;;;;;;2.70;2.50;;;9.50;97.20;;;;;;1687471;29;20207;-69
2022/11/14 09:30:02;;;;;;;2.63;2.40;;;9.50;97.20;;;;;;1687535;29;20204;-69
2022/11/14 09:30:54;;;;;;;3.15;2.80;;;9.50;97.20;;;;;;1687451;29;20240;-69
2022/11/14 09:31:44;;;;;;;2.60;2.35;;;9.50;97.20;;;;;;1687239;29;20213;-69
2022/11/14 09:32:36;;;;;;;2.23;2.00;;;9.50;97.20;;;;;;1687624;29;20211;-70
2022/11/14 09:33:27;;;;;;;2.33;2.08;;;9.60;97.20;;;;;;1687460;29;20205;-70
2022/11/14 09:34:19;;;;;;;2.67;2.47;;;9.60;97.20;;;;;;1684258;29;20212;-69
2022/11/14 09:35:11;;;;;;;2.58;1.90;;;9.60;97.20;;;;;;1681214;29;20209;-70
2022/11/14 09:36:06;;;;;;;3.85;2.13;;;9.60;97.20;;;;;;1681008;29;20198;-70
2022/11/14 09:36:58;;;;;;;2.88;2.15;;;9.60;97.20;;;;;;1681123;29;20205;-69
2022/11/14 09:37:49;;;;;;;2.50;2.30;;;9.60;97.20;;;;;;1681109;29;20268;-70
2022/11/14 09:38:41;;;;;;;3.40;2.10;;;9.60;97.20;;;;;;1681096;29;20216;-70
2022/11/14 09:39:36;;;;;;;3.78;2.45;;;9.60;97.20;;;;;;1681195;29;20296;-69
2022/11/14 09:40:29;;;;;;;2.78;2.03;;;9.60;97.20;;;;;;1681051;29;20237;-69
2022/11/14 09:41:24;;;;;;;2.00;1.90;;;9.60;97.20;;;;;;1681132;29;20220;-69
2022/11/14 09:42:28;;;;;;;2.78;2.20;;;9.60;97.20;;;;;;1680818;29;20201;-69
2022/11/14 09:43:34;;;;;;;2.45;2.17;;;9.70;97.20;;;;;;1681150;29;20213;-70
2022/11/14 09:44:43;;;;;;;2.40;2.13;;;9.70;97.20;;;;;;1681234;29;20582;-69
2022/11/14 09:45:40;;;;;;;2.78;2.45;;;9.70;97.20;;;;;;1681103;29;20218;-70
2022/11/14 09:46:37;;;;;;;2.97;2.20;;;9.70;97.20;;;;;;1681224;29;20606;-69
2022/11/14 09:47:32;;;;;;;2.30;2.20;;;9.70;97.20;;;;;;1681165;29;20224;-69
2022/11/14 09:48:29;;;;;;;3.72;2.70;;;9.70;97.20;;;;;;1681163;29;20214;-69
2022/11/14 09:49:26;;;;;;;3.70;3.40;;;9.70;97.20;;;;;;1681200;29;20695;-69
2022/11/14 09:50:22;;;;;;;2.90;2.70;;;9.70;97.20;;;;;;1681139;29;20213;-69
2022/11/14 09:51:15;;;;;;;4.68;4.28;;;9.70;97.20;;;;;;1681109;29;20225;-69
2022/11/14 09:52:19;;;;;;;4.30;4.00;;;9.70;97.20;;;;;;1680819;29;20603;-69
2022/11/14 09:53:23;;;;;;;5.15;4.63;;;9.70;97.20;;;;;;1681083;29;20221;-70
2022/11/14 09:54:20;;;;;;;3.50;3.30;;;9.80;97.20;;;;;;1681108;29;20201;-69
2022/11/14 09:55:15;;;;;;;4.20;3.80;;;9.80;97.20;;;;;;1681087;29;20402;-69
2022/11/14 09:56:11;;;;;;;2.88;2.67;;;9.80;97.20;;;;;;1681021;29;20221;-69
2022/11/14 09:57:02;;;;;;;4.93;4.47;;;9.80;97.20;;;;;;1681028;29;20228;-70
2022/11/14 09:57:55;;;;;;;4.88;3.90;;;9.80;97.20;;;;;;1681094;29;20209;-69
2022/11/14 09:58:46;;;;;;;3.28;2.97;;;9.80;97.20;;;;;;1681042;29;20232;-69
2022/11/14 09:59:38;;;;;;;3.77;3.47;;;9.90;97.20;;;;;;1681080;29;20490;-70
2022/11/14 10:00:44;;;;;;;4.50;4.20;;;9.90;97.20;;;;;;1681019;29;20589;-69
2022/11/14 10:01:45;;;;;;;4.10;3.85;;;9.90;97.20;;;;;;1681569;29;20345;-70
2022/11/14 10:02:43;;;;;;;3.20;2.90;;;9.90;97.20;;;;;;1682314;29;20229;-69
2022/11/14 10:03:45;;;;;;;3.38;3.08;;;9.90;97.20;;;;;;1682240;29;20220;-70
2022/11/14 10:04:48;;;;;;;4.03;2.78;;;9.90;97.20;;;;;;1685925;29;20252;-70
2022/11/14 10:05:54;;;;;;;2.50;2.30;;;9.90;97.20;;;;;;1688756;29;20220;-69
2022/11/14 10:06:54;;;;;;;2.42;2.20;;;10.00;97.20;;;;;;1688615;29;20205;-69
2022/11/14 10:08:00;;;;;;;2.42;2.22;;;10.00;97.20;;;;;;1688659;29;20197;-69
2022/11/14 10:09:07;;;;;;;2.13;2.03;;;10.00;97.20;;;;;;1688775;29;20247;-70
2022/11/14 10:10:08;;;;;;;2.90;2.70;;;10.00;97.20;;;;;;1688704;29;20211;-69
2022/11/14 10:11:04;;;;;;;2.70;2.50;;;10.00;97.20;;;;;;1688599;29;20224;-70
2022/11/14 10:12:04;;;;;;;2.13;1.92;;;10.10;97.20;;;;;;1688421;29;20230;-70
2022/11/14 10:13:05;;;;;;;2.13;2.03;;;10.10;97.20;;;;;;1688587;29;20235;-69
2022/11/14 10:14:15;;;;;;;2.53;2.33;;;10.10;97.20;;;;;;1688651;29;20213;-69
2022/11/14 10:15:16;;;;;;;2.83;2.58;;;10.10;97.20;;;;;;1688655;29;20213;-70
2022/11/14 10:16:12;;;;;;;2.38;1.90;;;10.10;97.20;;;;;;1688580;29;20631;-69
2022/11/14 10:17:15;;;;;;;2.97;2.67;;;10.10;97.20;;;;;;1688648;29;20283;-70
2022/11/14 10:18:18;;;;;;;2.33;2.13;;;10.20;97.20;;;;;;1688666;29;20687;-70
2022/11/14 10:19:23;;;;;;;3.38;3.08;;;10.20;97.20;;;;;;1688662;29;20209;-69
2022/11/14 10:20:23;;;;;;;2.80;2.60;;;10.20;97.20;;;;;;1688603;29;20209;-70
2022/11/14 10:21:34;;;;;;;3.38;2.80;;;10.20;97.20;;;;;;1688672;29;20219;-69
2022/11/14 10:22:42;;;;;;;3.40;3.10;;;10.20;97.20;;;;;;1688592;29;20215;-69
2022/11/14 10:23:45;;;;;;;2.83;2.40;;;10.20;97.20;;;;;;1688641;29;20300;-69
2022/11/14 10:24:51;;;;;;;3.17;2.88;;;10.30;97.20;;;;;;1688660;29;20209;-70
2022/11/14 10:25:52;;;;;;;3.38;2.47;;;10.30;97.20;;;;;;1688565;29;20580;-70
2022/11/14 10:26:54;;;;;;;2.88;2.67;;;10.30;97.20;;;;;;1688520;29;20231;-69
2022/11/14 10:27:58;;;;;;;2.90;2.70;;;10.30;97.20;;;;;;1688568;29;20679;-70
2022/11/14 10:29:06;;;;;;;2.72;2.03;;;10.30;97.20;;;;;;1688580;29;20240;-69
2022/11/14 10:30:14;;;;;;;2.67;2.47;;;10.30;97.20;;;;;;1688621;29;20216;-69
2022/11/14 10:31:19;;;;;;;2.45;2.25;;;10.40;97.20;;;;;;1687810;29;20224;-69
2022/11/14 10:32:20;;;;;;;2.60;1.95;;;10.40;97.20;;;;;;1688254;29;20208;-69
2022/11/14 10:33:31;;;;;;;2.70;2.50;;;10.40;97.20;;;;;;1688481;29;20200;-69
2022/11/14 10:34:29;;;;;;;2.88;2.50;;;10.40;97.20;;;;;;1688388;29;20208;-69
2022/11/14 10:35:24;;;;;;;2.80;2.60;;;10.40;97.20;;;;;;1688574;29;20223;-70
2022/11/14 10:36:27;;;;;;;2.70;2.50;;;10.40;97.20;;;;;;1688446;29;20205;-70
2022/11/14 10:37:24;;;;;;;2.67;2.00;;;10.50;97.20;;;;;;1688555;29;20213;-70
2022/11/14 10:38:24;;;;;;;2.08;1.90;;;10.50;97.20;;;;;;1688702;29;20207;-70
2022/11/14 10:39:20;;;;;;;1.90;1.80;;;10.50;97.20;;;;;;1688416;29;20215;-69
2022/11/14 10:40:18;;;;;;;3.05;2.78;;;10.50;97.20;;;;;;1688442;29;20208;-69